Time;durP1;ratioP1;P1;durP2;ratioP2;P2;SDS_P1;SDS_P2;PMS_P1;PMS_P2;Temp;Humidity;BMP_temperature;BMP_pressure;BME280_temperature;BME280_humidity;BME280_pressure;Samples;Min_cycle;Max_cycle;Signal;HPM_P1;HPM_P2
2022/05/12 05:12:00;;;;;;;7.80;4.40;;;18.90;99.90;;;;;;1907119;22;20786;-86
2022/05/12 05:14:32;;;;;;;5.53;3.80;;;19.00;99.90;;;;;;5027786;28;20473;-87
2022/05/12 05:17:01;;;;;;;7.27;3.90;;;19.20;99.90;;;;;;5032235;28;20449;-88
2022/05/12 05:19:29;;;;;;;7.83;4.13;;;19.50;99.90;;;;;;5036151;28;20443;-87
2022/05/12 05:21:56;;;;;;;5.50;3.80;;;19.50;99.90;;;;;;5027635;28;20470;-87
2022/05/12 05:24:23;;;;;;;9.70;4.30;;;19.40;99.90;;;;;;5027649;28;20458;-87
2022/05/12 05:26:52;;;;;;;5.50;3.57;;;19.50;99.90;;;;;;5025291;28;20493;-87
2022/05/12 05:29:21;;;;;;;4.47;3.60;;;19.70;99.90;;;;;;5029811;28;20533;-87
2022/05/12 05:31:49;;;;;;;6.37;4.10;;;19.80;99.90;;;;;;5033121;28;20490;-88
2022/05/12 05:34:19;;;;;;;5.80;4.17;;;19.90;99.90;;;;;;5033380;28;20455;-88
2022/05/12 05:36:54;;;;;;;6.93;4.17;;;19.90;99.90;;;;;;5032508;28;20935;-88
2022/05/12 05:39:22;;;;;;;6.60;3.90;;;20.00;99.90;;;;;;5024779;28;20795;-88
2022/05/12 05:41:53;;;;;;;5.73;3.73;;;20.10;99.90;;;;;;5019900;28;20474;-88
2022/05/12 05:44:28;;;;;;;8.37;3.50;;;20.20;99.90;;;;;;5021794;28;20485;-88
2022/05/12 05:46:58;;;;;;;5.30;3.30;;;20.40;99.90;;;;;;5020451;28;20903;-87
2022/05/12 05:49:25;;;;;;;5.67;3.07;;;20.60;99.90;;;;;;5022622;28;20454;-87
2022/05/12 05:54:43;;;;;;;6.60;2.67;;;20.70;99.90;;;;;;5022283;28;20795;-87
2022/05/12 05:57:11;;;;;;;4.60;2.73;;;20.80;99.90;;;;;;5022608;28;20446;-88
2022/05/12 05:59:42;;;;;;;5.90;3.03;;;20.90;99.90;;;;;;5025630;28;20463;-88
2022/05/12 06:02:12;;;;;;;6.90;2.60;;;21.00;99.90;;;;;;5029221;28;20501;-88
2022/05/12 06:04:39;;;;;;;5.40;2.90;;;20.90;99.80;;;;;;5025067;28;20796;-87
2022/05/12 06:07:07;;;;;;;8.90;2.60;;;20.80;99.90;;;;;;5023804;28;20459;-89
2022/05/12 06:09:34;;;;;;;7.20;3.07;;;20.70;99.90;;;;;;5023081;28;20486;-87
2022/05/12 06:12:01;;;;;;;6.40;2.70;;;20.60;99.90;;;;;;5022165;28;20490;-87
2022/05/12 06:14:30;;;;;;;5.20;2.80;;;20.70;99.90;;;;;;5021588;28;20434;-87
2022/05/12 06:16:58;;;;;;;4.97;2.50;;;20.80;99.90;;;;;;5020441;28;20477;-88
2022/05/12 06:19:26;;;;;;;5.73;2.73;;;20.80;99.90;;;;;;5020198;28;20947;-87
2022/05/12 06:21:53;;;;;;;3.70;2.20;;;20.80;99.90;;;;;;5029345;28;20525;-86
2022/05/12 06:24:23;;;;;;;4.40;2.43;;;21.00;99.90;;;;;;5020615;28;20458;-88
2022/05/12 06:26:51;;;;;;;5.30;2.87;;;21.20;99.80;;;;;;5021477;28;20468;-87
2022/05/12 06:29:19;;;;;;;6.23;3.27;;;21.20;99.60;;;;;;5024761;28;20442;-87
2022/05/12 06:31:47;;;;;;;5.40;2.60;;;21.20;99.70;;;;;;5028938;28;20537;-87
2022/05/12 06:34:16;;;;;;;4.07;2.50;;;21.30;99.70;;;;;;5021193;28;21009;-88
2022/05/12 06:36:44;;;;;;;4.33;2.40;;;21.50;99.50;;;;;;5020921;28;20449;-88
2022/05/12 06:39:11;;;;;;;5.20;2.97;;;21.60;98.60;;;;;;5028152;28;20433;-88
2022/05/12 06:41:38;;;;;;;10.27;3.43;;;21.60;98.70;;;;;;5035169;28;20465;-88
2022/05/12 06:44:06;;;;;;;6.10;3.70;;;21.60;98.60;;;;;;5019722;28;20509;-86
2022/05/12 06:46:33;;;;;;;5.90;2.97;;;21.70;98.20;;;;;;5020024;28;20454;-87
2022/05/12 06:49:02;;;;;;;4.43;2.60;;;21.90;98.30;;;;;;5020973;28;20450;-87
2022/05/12 06:51:30;;;;;;;5.93;2.83;;;21.90;98.30;;;;;;5018881;28;20530;-86
2022/05/12 06:53:57;;;;;;;11.10;2.97;;;22.00;98.10;;;;;;5023609;28;20457;-88
2022/05/12 06:56:24;;;;;;;5.00;2.63;;;21.80;98.40;;;;;;5027836;28;20655;-86
2022/05/12 06:58:51;;;;;;;5.90;3.40;;;21.70;98.80;;;;;;5035834;28;20449;-86
2022/05/12 07:01:19;;;;;;;3.77;2.37;;;21.50;99.30;;;;;;5036388;28;20446;-84
2022/05/12 07:03:53;;;;;;;8.20;2.90;;;21.40;99.30;;;;;;5028307;28;20457;-87
2022/05/12 07:06:30;;;;;;;4.47;2.93;;;21.10;99.60;;;;;;5042009;28;20447;-83
2022/05/12 07:08:57;;;;;;;5.80;2.57;;;21.10;99.80;;;;;;5041635;28;20428;-84
2022/05/12 07:11:24;;;;;;;6.40;2.77;;;21.20;99.80;;;;;;5038620;28;20489;-86
2022/05/12 07:13:51;;;;;;;5.00;2.80;;;21.20;99.90;;;;;;5030920;28;20508;-88
2022/05/12 07:16:20;;;;;;;6.10;2.70;;;21.40;99.90;;;;;;5035038;28;20454;-86
2022/05/12 07:18:48;;;;;;;4.83;2.33;;;21.40;99.60;;;;;;5031549;28;20469;-86
2022/05/12 07:26:48;;;;;;;10.13;6.17;;;21.50;99.80;;;;;;5028255;28;20969;-87
2022/05/12 07:29:20;;;;;;;6.07;2.67;;;21.40;99.90;;;;;;5026336;28;20450;-86
2022/05/12 07:31:48;;;;;;;7.23;3.03;;;21.60;99.90;;;;;;5025966;28;20486;-86
2022/05/12 07:34:16;;;;;;;5.43;2.67;;;21.70;99.60;;;;;;5029114;28;20469;-85
2022/05/12 07:36:46;;;;;;;6.27;3.10;;;21.80;99.20;;;;;;5038277;28;20430;-86
2022/05/12 07:39:15;;;;;;;4.30;2.50;;;21.80;99.20;;;;;;5040162;28;20423;-86
2022/05/12 07:41:42;;;;;;;4.80;2.60;;;21.70;99.20;;;;;;5035343;28;20498;-84
2022/05/12 07:44:09;;;;;;;8.70;2.53;;;21.60;99.30;;;;;;5034182;28;20453;-87
2022/05/12 07:46:37;;;;;;;4.30;2.60;;;21.70;99.40;;;;;;5039008;28;20446;-87
2022/05/12 07:49:04;;;;;;;5.20;3.30;;;21.40;99.80;;;;;;5036568;28;20438;-87
2022/05/12 07:51:32;;;;;;;8.60;2.63;;;21.50;99.90;;;;;;5031884;28;20478;-88
2022/05/12 07:53:59;;;;;;;5.03;3.03;;;21.60;99.80;;;;;;5030810;28;20505;-87
2022/05/12 07:56:29;;;;;;;6.30;3.30;;;21.40;99.90;;;;;;5027330;28;20493;-86
2022/05/12 07:58:59;;;;;;;6.30;2.97;;;21.50;99.90;;;;;;5025438;28;20482;-87
2022/05/12 08:01:28;;;;;;;5.20;2.67;;;21.50;99.90;;;;;;5028695;28;20435;-85
2022/05/12 08:03:55;;;;;;;5.97;2.50;;;21.50;99.90;;;;;;5040109;28;20458;-86
2022/05/12 08:06:25;;;;;;;6.13;2.80;;;21.60;99.90;;;;;;5032573;28;20525;-87
2022/05/12 08:08:53;;;;;;;10.63;2.83;;;21.60;99.90;;;;;;5028079;28;20509;-86
2022/05/12 08:11:21;;;;;;;7.40;3.30;;;21.70;99.90;;;;;;5024904;28;20898;-88
2022/05/12 08:13:49;;;;;;;3.90;2.30;;;21.70;99.90;;;;;;5024611;28;20453;-86
2022/05/12 08:16:17;;;;;;;4.40;2.50;;;21.60;99.90;;;;;;5023458;28;20482;-87
2022/05/12 08:18:47;;;;;;;5.60;2.57;;;21.50;99.90;;;;;;5020014;28;20443;-88
2022/05/12 08:21:15;;;;;;;4.77;3.00;;;21.60;99.90;;;;;;5028556;28;20557;-86
2022/05/12 08:23:48;;;;;;;7.53;3.10;;;21.70;99.60;;;;;;5022105;28;20505;-87
2022/05/12 08:26:17;;;;;;;5.33;2.70;;;22.10;99.40;;;;;;5022850;28;20447;-86
2022/05/12 08:28:44;;;;;;;5.07;2.90;;;22.30;98.60;;;;;;5022890;28;20922;-87
2022/05/12 08:31:13;;;;;;;5.10;3.10;;;22.60;98.00;;;;;;5023319;28;20486;-87
2022/05/12 08:33:40;;;;;;;6.30;3.20;;;22.70;97.70;;;;;;5023825;28;20474;-87
2022/05/12 08:36:11;;;;;;;4.87;3.07;;;22.70;97.70;;;;;;5023940;28;20504;-87
2022/05/12 08:38:44;;;;;;;4.63;3.17;;;22.80;97.60;;;;;;5023341;28;20457;-87
2022/05/12 08:41:20;;;;;;;4.63;2.73;;;22.90;97.10;;;;;;5022815;28;20442;-87
2022/05/12 08:43:57;;;;;;;4.20;2.63;;;23.00;97.10;;;;;;5019971;28;20477;-87
2022/05/12 08:46:29;;;;;;;6.20;2.87;;;22.70;97.50;;;;;;5022560;28;20462;-86
2022/05/12 08:49:06;;;;;;;5.13;3.13;;;22.70;97.50;;;;;;5025811;28;20431;-86
2022/05/12 08:51:35;;;;;;;4.47;2.97;;;22.80;97.80;;;;;;5023950;28;20478;-86
2022/05/12 08:54:07;;;;;;;8.37;3.10;;;22.90;97.50;;;;;;5023510;28;20485;-87
2022/05/12 08:56:35;;;;;;;4.00;3.10;;;22.90;97.30;;;;;;5024177;28;20430;-87
2022/05/12 08:59:03;;;;;;;5.23;2.70;;;22.80;97.10;;;;;;5023781;28;20495;-87
2022/05/12 09:01:39;;;;;;;4.17;3.00;;;22.70;97.50;;;;;;5022826;28;20457;-86
2022/05/12 09:04:44;;;;;;;3.80;2.73;;;22.70;97.60;;;;;;5021285;28;20434;-87
2022/05/12 09:07:17;;;;;;;6.53;2.90;;;22.80;98.10;;;;;;5016575;28;20454;-85
2022/05/12 09:09:53;;;;;;;5.10;3.13;;;22.90;97.30;;;;;;5035481;28;20443;-85
2022/05/12 09:12:34;;;;;;;7.20;3.10;;;23.10;97.20;;;;;;5039168;28;20608;-86
2022/05/12 09:15:05;;;;;;;5.47;3.43;;;23.00;97.20;;;;;;5038064;28;20435;-86
2022/05/12 09:17:38;;;;;;;5.97;3.70;;;23.00;97.40;;;;;;5026003;28;20465;-88
2022/05/12 09:20:09;;;;;;;6.20;3.10;;;22.80;97.40;;;;;;5037034;28;20435;-87
2022/05/12 09:22:38;;;;;;;5.10;3.50;;;22.60;97.70;;;;;;5027966;28;20508;-86
2022/05/12 09:25:07;;;;;;;5.73;3.73;;;22.60;97.90;;;;;;5034572;28;20446;-86
2022/05/12 09:27:36;;;;;;;4.67;3.67;;;22.70;97.80;;;;;;5034323;28;20474;-87
2022/05/12 09:30:04;;;;;;;7.93;4.30;;;22.80;97.70;;;;;;5025301;28;20465;-86
2022/05/12 09:32:37;;;;;;;4.80;3.47;;;23.00;97.40;;;;;;5030236;28;20498;-87
2022/05/12 09:35:14;;;;;;;5.20;3.43;;;23.20;96.60;;;;;;5027438;28;20509;-87
2022/05/12 09:37:42;;;;;;;7.33;4.80;;;23.30;96.40;;;;;;5026815;28;20441;-86
2022/05/12 09:40:23;;;;;;;8.10;3.87;;;23.30;95.90;;;;;;5033001;28;20435;-87
2022/05/12 09:42:51;;;;;;;9.13;4.33;;;23.40;96.00;;;;;;5026693;28;20465;-87
2022/05/12 09:45:31;;;;;;;9.37;4.20;;;23.40;95.80;;;;;;5024501;28;20454;-87
2022/05/12 09:48:19;;;;;;;6.80;4.80;;;23.50;95.60;;;;;;5023747;28;20446;-88
2022/05/12 09:50:47;;;;;;;6.83;4.87;;;23.60;95.00;;;;;;5023143;28;20457;-87
2022/05/12 09:53:23;;;;;;;7.60;4.87;;;23.80;94.80;;;;;;5025160;28;20502;-87
2022/05/12 09:56:00;;;;;;;7.43;4.47;;;23.90;94.60;;;;;;5031380;28;20457;-87
2022/05/12 09:58:33;;;;;;;7.67;5.73;;;24.20;94.40;;;;;;5028279;28;20438;-86
2022/05/12 10:01:17;;;;;;;7.83;5.10;;;24.30;94.10;;;;;;5025839;28;20893;-87
2022/05/12 10:09:20;;;;;;;11.33;4.70;;;24.20;93.50;;;;;;5025030;28;20437;-86
2022/05/12 10:11:53;;;;;;;6.17;4.73;;;24.30;93.30;;;;;;5026354;28;20486;-86
2022/05/12 10:14:35;;;;;;;6.50;3.77;;;24.40;93.20;;;;;;5025917;28;20426;-88
2022/05/12 10:17:07;;;;;;;9.17;5.60;;;23.80;94.70;;;;;;5029636;28;20447;-86
2022/05/12 10:19:37;;;;;;;8.73;5.00;;;23.80;94.90;;;;;;5035689;28;20454;-86
2022/05/12 10:22:17;;;;;;;5.73;3.93;;;23.90;94.80;;;;;;5034185;28;21031;-87
2022/05/12 10:24:54;;;;;;;5.43;4.10;;;24.00;94.10;;;;;;5029927;28;20463;-86
2022/05/12 10:27:29;;;;;;;7.70;4.30;;;23.90;94.60;;;;;;5024584;28;20446;-87
2022/05/12 10:30:13;;;;;;;6.40;4.40;;;23.90;94.60;;;;;;5024915;28;20521;-88
2022/05/12 10:32:53;;;;;;;5.43;4.30;;;23.80;94.50;;;;;;5023211;28;20554;-86
2022/05/12 10:35:28;;;;;;;7.23;4.20;;;23.90;94.70;;;;;;5023204;28;20465;-88
2022/05/12 10:38:05;;;;;;;5.70;4.10;;;24.00;94.50;;;;;;5026185;28;20435;-86
2022/05/12 10:40:39;;;;;;;7.77;4.77;;;24.30;94.00;;;;;;5037300;28;20436;-86
2022/05/12 10:43:33;;;;;;;5.80;4.23;;;24.50;93.50;;;;;;5034862;28;20501;-88
2022/05/12 10:46:06;;;;;;;7.80;4.20;;;24.50;93.10;;;;;;5020696;28;20465;-87
2022/05/12 10:48:47;;;;;;;5.43;4.57;;;24.40;93.10;;;;;;5037967;28;20442;-85
2022/05/12 10:51:34;;;;;;;8.03;4.23;;;24.50;93.40;;;;;;5037110;28;20509;-87
2022/05/12 10:54:18;;;;;;;7.90;4.30;;;24.40;93.30;;;;;;5033125;28;20518;-87
2022/05/12 10:56:55;;;;;;;6.03;4.50;;;24.10;93.60;;;;;;5031491;28;20423;-87
2022/05/12 11:00:00;;;;;;;6.37;4.03;;;23.90;94.20;;;;;;5027782;28;20442;-87
2022/05/12 11:02:38;;;;;;;5.50;4.40;;;23.80;94.10;;;;;;5023636;28;20466;-87
2022/05/12 11:05:13;;;;;;;8.90;5.00;;;23.90;94.10;;;;;;5022952;28;20783;-87
2022/05/12 11:07:54;;;;;;;10.83;4.70;;;23.90;94.00;;;;;;5021737;28;20529;-87
2022/05/12 11:10:32;;;;;;;6.93;4.23;;;24.00;93.90;;;;;;5025011;28;20423;-87
2022/05/12 11:13:05;;;;;;;10.60;4.50;;;24.20;93.50;;;;;;5037143;28;20533;-83
2022/05/12 11:15:45;;;;;;;6.77;4.93;;;24.30;93.20;;;;;;5037399;28;20442;-85
2022/05/12 11:18:21;;;;;;;8.80;4.93;;;24.40;93.40;;;;;;5031203;28;20458;-87
2022/05/12 11:20:57;;;;;;;8.60;4.73;;;24.60;93.10;;;;;;5020742;28;20435;-87
2022/05/12 11:23:36;;;;;;;7.50;4.70;;;24.90;92.20;;;;;;5021375;28;20477;-88
2022/05/12 11:26:12;;;;;;;8.20;4.50;;;24.90;91.60;;;;;;5021737;28;20476;-88
2022/05/12 11:31:39;;;;;;;10.10;5.30;;;24.90;91.60;;;;;;5019439;28;20423;-86
2022/05/12 11:34:09;;;;;;;10.43;5.10;;;25.30;91.10;;;;;;5020727;28;20435;-86
2022/05/12 11:36:41;;;;;;;8.47;5.20;;;25.60;90.70;;;;;;5020919;28;20522;-87
2022/05/12 11:39:26;;;;;;;7.10;4.53;;;25.70;90.40;;;;;;5025774;28;20461;-86
2022/05/12 11:42:14;;;;;;;5.70;4.70;;;25.30;90.80;;;;;;5027322;28;20477;-87
2022/05/12 11:44:55;;;;;;;7.43;4.93;;;25.00;91.30;;;;;;5026115;28;20439;-88
2022/05/12 11:47:50;;;;;;;6.27;4.43;;;25.10;91.30;;;;;;5034320;28;20869;-86
2022/05/12 11:50:33;;;;;;;7.90;5.17;;;25.10;91.30;;;;;;5025185;28;20416;-85
2022/05/12 11:53:04;;;;;;;7.50;4.80;;;25.30;90.70;;;;;;5024749;28;20489;-86
2022/05/12 11:55:35;;;;;;;5.80;4.73;;;25.50;89.30;;;;;;5024102;28;20449;-86
2022/05/12 11:58:09;;;;;;;6.10;4.50;;;25.50;89.40;;;;;;5023455;28;20465;-87
2022/05/12 12:00:58;;;;;;;6.97;4.57;;;25.30;90.10;;;;;;5024515;28;20437;-87
2022/05/12 12:03:49;;;;;;;9.20;5.50;;;24.80;90.90;;;;;;5032025;28;20470;-87
2022/05/12 12:06:42;;;;;;;7.03;5.10;;;24.80;91.10;;;;;;5033684;28;20924;-88
2022/05/12 12:09:54;;;;;;;6.83;4.53;;;24.80;91.50;;;;;;5025147;28;20798;-88
2022/05/12 12:12:52;;;;;;;10.87;4.70;;;24.80;91.10;;;;;;4970190;29;20568;-86
2022/05/12 12:15:52;;;;;;;7.23;4.90;;;25.00;91.10;;;;;;5030644;28;20477;-87
2022/05/12 12:18:56;;;;;;;7.53;5.27;;;25.20;90.80;;;;;;5025019;28;20475;-86
2022/05/12 12:21:44;;;;;;;8.03;6.10;;;25.40;90.10;;;;;;5024224;28;20503;-87
2022/05/12 12:24:47;;;;;;;12.63;5.20;;;25.50;89.50;;;;;;5022077;28;20491;-87
2022/05/12 12:27:31;;;;;;;6.60;5.00;;;25.80;88.80;;;;;;5030572;28;20572;-86
2022/05/12 12:30:36;;;;;;;8.50;4.40;;;26.00;87.50;;;;;;5030780;28;20528;-85
2022/05/12 12:33:17;;;;;;;6.87;5.27;;;25.30;88.80;;;;;;5037146;28;20505;-86
2022/05/12 12:36:00;;;;;;;9.20;6.10;;;24.80;90.70;;;;;;5034518;28;20435;-86
2022/05/12 12:39:01;;;;;;;6.57;5.33;;;24.80;90.90;;;;;;5025945;28;20461;-86
2022/05/12 12:41:37;;;;;;;5.63;4.13;;;25.00;90.60;;;;;;5025002;28;20486;-86
2022/05/12 12:44:09;;;;;;;6.93;4.60;;;24.90;90.70;;;;;;5026885;28;20431;-87
2022/05/12 12:46:49;;;;;;;8.13;5.00;;;24.90;91.00;;;;;;5027295;28;20895;-89
2022/05/12 12:49:21;;;;;;;8.43;5.03;;;25.00;91.00;;;;;;5026055;28;20465;-88
2022/05/12 12:51:54;;;;;;;8.23;4.97;;;25.10;91.20;;;;;;5027071;28;20530;-89
2022/05/12 12:57:09;;;;;;;8.73;5.70;;;25.70;90.40;;;;;;5033948;28;20442;-87
2022/05/12 12:59:41;;;;;;;6.10;4.83;;;25.70;90.20;;;;;;5034754;28;20475;-86
2022/05/12 13:02:35;;;;;;;8.63;4.80;;;25.20;91.00;;;;;;5025279;28;20562;-87
2022/05/12 13:05:07;;;;;;;10.63;4.90;;;24.90;91.60;;;;;;5023695;28;20517;-87
2022/05/12 13:07:36;;;;;;;6.70;5.03;;;24.90;91.80;;;;;;5020503;28;20462;-87
2022/05/12 13:10:08;;;;;;;10.53;5.57;;;24.90;91.80;;;;;;5022337;28;20506;-87
2022/05/12 13:12:36;;;;;;;8.00;5.23;;;24.90;91.80;;;;;;5022283;28;21022;-86
2022/05/12 13:15:13;;;;;;;8.83;4.60;;;24.90;92.10;;;;;;5023656;28;20477;-87
2022/05/12 13:17:46;;;;;;;5.90;4.60;;;25.00;92.00;;;;;;5022290;28;20458;-86
2022/05/12 13:20:16;;;;;;;5.73;4.10;;;25.10;92.70;;;;;;5021581;28;20441;-87
2022/05/12 13:22:48;;;;;;;5.40;4.10;;;25.10;92.50;;;;;;5030631;28;20491;-87
2022/05/12 13:25:20;;;;;;;8.37;5.17;;;25.10;92.20;;;;;;5027890;28;20461;-87
2022/05/12 13:27:49;;;;;;;5.00;3.93;;;25.10;92.20;;;;;;5022363;28;20439;-87
2022/05/12 13:30:19;;;;;;;7.97;4.37;;;24.90;92.30;;;;;;5021991;28;20568;-87
2022/05/12 13:32:50;;;;;;;6.27;4.73;;;24.90;92.90;;;;;;5021463;28;20500;-87
2022/05/12 13:35:19;;;;;;;7.90;4.40;;;24.90;92.60;;;;;;5023005;28;20442;-87
2022/05/12 13:38:02;;;;;;;7.63;4.13;;;24.90;92.50;;;;;;5032201;28;20457;-85
2022/05/12 13:40:59;;;;;;;6.73;4.73;;;24.90;92.60;;;;;;5034210;28;20423;-89
2022/05/12 13:43:30;;;;;;;6.03;5.00;;;24.80;92.90;;;;;;4993737;28;20497;-87
2022/05/12 13:46:26;;;;;;;6.20;4.30;;;24.80;93.00;;;;;;5037378;28;20452;-88
2022/05/12 13:49:00;;;;;;;5.43;4.23;;;24.80;92.90;;;;;;5028155;28;20486;-86
2022/05/12 13:51:50;;;;;;;8.40;4.60;;;24.70;93.20;;;;;;5030192;28;20438;-86
2022/05/12 13:54:29;;;;;;;6.63;4.13;;;24.60;93.50;;;;;;5037600;28;20478;-88
2022/05/12 13:57:16;;;;;;;6.50;4.20;;;24.60;93.60;;;;;;5027188;28;20439;-88
2022/05/12 13:59:53;;;;;;;8.03;4.90;;;24.40;94.10;;;;;;5029095;28;20442;-87
2022/05/12 14:02:25;;;;;;;8.10;4.00;;;24.50;94.30;;;;;;5031429;28;20520;-87
2022/05/12 19:24:34;;;;;;;15.97;10.10;;;20.00;99.90;;;;;;4970905;28;20561;-88
2022/05/12 19:31:10;;;;;;;13.67;10.07;;;20.00;99.90;;;;;;4990043;28;20443;-90
2022/05/12 19:37:41;;;;;;;14.00;11.20;;;19.90;99.90;;;;;;4881348;28;20441;-89
2022/05/12 19:43:28;;;;;;;16.60;11.83;;;19.80;99.90;;;;;;5002170;28;20518;-89
2022/05/12 19:50:03;;;;;;;14.90;10.57;;;19.70;99.90;;;;;;5002413;28;20455;-89
2022/05/12 19:59:43;;;;;;;11.50;10.30;;;19.50;99.90;;;;;;4992501;28;20475;-88
2022/05/12 20:02:40;;;;;;;15.97;9.70;;;19.60;99.90;;;;;;5002321;28;20459;-88
2022/05/12 20:05:18;;;;;;;11.13;9.90;;;19.60;99.90;;;;;;5057927;22;20548;-87
2022/05/12 20:07:49;;;;;;;12.97;10.57;;;19.50;99.90;;;;;;5037814;28;20429;-84
2022/05/12 20:10:21;;;;;;;12.53;9.77;;;19.50;99.90;;;;;;5038770;28;20436;-86
2022/05/12 20:12:53;;;;;;;13.20;9.57;;;19.50;99.90;;;;;;5037610;28;20442;-88
2022/05/12 20:15:20;;;;;;;12.93;9.93;;;19.50;99.90;;;;;;5030862;28;20550;-89
2022/05/12 20:17:52;;;;;;;12.20;9.10;;;19.60;99.90;;;;;;5027729;28;20457;-88
2022/05/12 20:20:25;;;;;;;12.60;10.00;;;19.60;99.90;;;;;;5025554;28;20462;-88
2022/05/12 20:22:53;;;;;;;12.43;10.53;;;19.60;99.90;;;;;;5036544;28;20443;-86
2022/05/12 20:25:23;;;;;;;11.90;9.97;;;19.50;99.90;;;;;;5036446;28;20577;-87
2022/05/12 20:27:57;;;;;;;14.90;9.17;;;19.50;99.90;;;;;;5023831;28;20482;-87
2022/05/12 20:30:25;;;;;;;13.10;10.47;;;19.50;99.90;;;;;;5023138;28;20466;-86
2022/05/12 20:32:52;;;;;;;14.43;9.90;;;19.60;99.90;;;;;;5023110;28;20446;-87
2022/05/12 20:35:20;;;;;;;11.13;9.50;;;19.60;99.90;;;;;;5025430;28;20490;-88
2022/05/12 20:37:47;;;;;;;13.20;9.93;;;19.60;99.90;;;;;;5025189;28;20462;-87
2022/05/12 20:40:18;;;;;;;11.10;9.63;;;19.70;99.90;;;;;;5025383;28;20500;-87
2022/05/12 20:42:45;;;;;;;13.10;10.00;;;19.70;99.90;;;;;;5032015;28;20473;-87
2022/05/12 20:45:59;;;;;;;10.83;9.63;;;19.60;99.90;;;;;;5032081;28;20505;-89
2022/05/12 20:48:03;;;;;;;12.83;9.33;;;19.60;99.90;;;;;;5030228;28;20447;-87
2022/05/12 20:50:31;;;;;;;10.90;9.10;;;19.60;99.90;;;;;;5020261;28;20454;-86
2022/05/12 20:52:59;;;;;;;11.90;9.37;;;19.60;99.90;;;;;;5022024;28;20514;-86
2022/05/12 20:55:27;;;;;;;10.83;9.73;;;19.60;99.90;;;;;;5021343;28;20541;-87
2022/05/12 20:57:54;;;;;;;10.67;9.43;;;19.50;99.90;;;;;;5019538;28;20489;-87
2022/05/12 21:00:23;;;;;;;11.07;9.47;;;19.40;99.90;;;;;;5020199;28;20494;-88
2022/05/12 21:02:54;;;;;;;12.60;10.10;;;19.40;99.90;;;;;;5021622;28;20435;-88
2022/05/12 21:05:20;;;;;;;11.57;9.80;;;19.40;99.90;;;;;;5022228;28;20513;-88
2022/05/12 21:07:49;;;;;;;13.83;10.40;;;19.40;99.90;;;;;;5024015;28;20450;-88
2022/05/12 21:10:16;;;;;;;12.40;11.10;;;19.30;99.90;;;;;;5022236;28;20519;-88
2022/05/12 21:13:00;;;;;;;10.80;9.70;;;19.40;99.90;;;;;;5022458;28;20473;-88
2022/05/12 21:15:42;;;;;;;11.50;10.30;;;19.40;99.90;;;;;;5024888;28;20482;-87
2022/05/12 21:18:17;;;;;;;11.00;8.97;;;19.30;99.90;;;;;;5023971;28;20419;-87
2022/05/12 21:20:45;;;;;;;10.93;9.60;;;19.40;99.90;;;;;;5029818;28;20461;-88
2022/05/12 21:23:14;;;;;;;11.53;10.10;;;19.40;99.90;;;;;;5027363;28;20493;-89
2022/05/12 21:25:40;;;;;;;11.33;10.07;;;19.40;99.90;;;;;;5023641;28;20494;-88
2022/05/12 21:28:08;;;;;;;11.70;9.80;;;19.50;99.90;;;;;;5018757;28;20964;-88
2022/05/12 21:30:37;;;;;;;12.30;9.50;;;19.40;99.90;;;;;;5019058;28;20481;-88
2022/05/12 21:33:04;;;;;;;14.13;10.77;;;19.40;99.90;;;;;;5018291;28;20538;-88
2022/05/12 21:35:33;;;;;;;10.97;9.40;;;19.40;99.90;;;;;;5018039;28;20589;-88
2022/05/12 21:38:01;;;;;;;12.03;8.80;;;19.50;99.90;;;;;;5017904;28;20442;-88
2022/05/12 21:40:36;;;;;;;11.60;9.20;;;19.40;99.90;;;;;;5018116;28;20546;-88
2022/05/12 21:43:06;;;;;;;10.77;9.67;;;19.40;99.90;;;;;;5027587;28;20460;-88
2022/05/12 21:45:43;;;;;;;10.40;8.70;;;19.40;99.90;;;;;;5032357;28;20462;-88
2022/05/12 21:48:22;;;;;;;11.93;9.43;;;19.40;99.90;;;;;;5018724;28;20514;-88
2022/05/12 21:50:52;;;;;;;10.67;8.97;;;19.40;99.90;;;;;;5019277;28;20933;-88
2022/05/12 21:53:26;;;;;;;9.23;8.27;;;19.50;99.90;;;;;;5034159;28;20443;-85
2022/05/12 21:56:01;;;;;;;10.60;9.00;;;19.40;99.90;;;;;;5037848;28;20490;-86
2022/05/12 22:01:34;;;;;;;9.90;8.20;;;19.40;99.90;;;;;;5018338;28;20414;-87
2022/05/12 22:04:07;;;;;;;13.47;9.27;;;19.40;99.90;;;;;;5023145;28;20482;-88
2022/05/12 22:06:37;;;;;;;10.53;9.30;;;19.50;99.90;;;;;;5033943;28;20468;-88
2022/05/12 22:09:15;;;;;;;11.03;9.33;;;19.50;99.90;;;;;;5031933;28;20445;-88
2022/05/12 22:14:29;;;;;;;11.50;9.37;;;19.40;99.90;;;;;;5017471;28;20609;-88
2022/05/12 22:16:57;;;;;;;13.23;9.70;;;19.40;99.90;;;;;;5018001;28;20458;-88
2022/05/12 22:19:27;;;;;;;13.47;9.87;;;19.40;99.90;;;;;;5016483;28;20443;-87
2022/05/12 22:21:59;;;;;;;11.80;10.00;;;19.30;99.90;;;;;;5016659;28;20901;-87
2022/05/12 22:24:27;;;;;;;10.37;9.00;;;19.30;99.90;;;;;;5017208;28;20505;-87
2022/05/12 22:26:55;;;;;;;9.30;8.40;;;19.40;99.90;;;;;;5015997;28;20490;-88
2022/05/12 22:29:23;;;;;;;13.30;9.40;;;19.50;99.90;;;;;;5016098;28;20546;-88
2022/05/12 22:31:58;;;;;;;10.23;8.90;;;19.50;99.90;;;;;;5017396;28;21021;-87
2022/05/12 22:34:28;;;;;;;11.40;8.27;;;19.40;99.90;;;;;;5024079;28;20492;-87
2022/05/12 22:36:58;;;;;;;10.60;9.20;;;19.40;99.90;;;;;;5024701;28;20533;-88
2022/05/12 22:39:32;;;;;;;10.27;8.93;;;19.40;99.90;;;;;;5016631;28;20497;-88
2022/05/12 22:42:00;;;;;;;11.77;9.83;;;19.40;99.90;;;;;;5017904;28;20443;-87
2022/05/12 22:44:29;;;;;;;13.10;8.90;;;19.40;99.90;;;;;;5015754;28;20474;-87
2022/05/12 22:46:58;;;;;;;12.93;10.27;;;19.50;99.90;;;;;;5019457;28;20566;-87
2022/05/12 22:49:25;;;;;;;12.00;9.43;;;19.40;99.90;;;;;;5017639;28;20442;-87
2022/05/12 22:51:52;;;;;;;12.57;9.20;;;19.40;99.90;;;;;;5017373;28;20998;-88
2022/05/12 22:54:22;;;;;;;10.10;8.97;;;19.40;99.90;;;;;;5017978;28;20482;-88
2022/05/12 22:56:50;;;;;;;11.30;9.10;;;19.40;99.90;;;;;;5019259;28;20505;-86
2022/05/12 22:59:18;;;;;;;12.43;9.60;;;19.30;99.90;;;;;;5018144;28;20467;-87
2022/05/12 23:01:47;;;;;;;10.30;8.60;;;19.30;99.90;;;;;;5025606;28;20446;-89
2022/05/12 23:04:14;;;;;;;12.60;9.97;;;19.30;99.90;;;;;;5033170;28;20505;-88
2022/05/12 23:06:41;;;;;;;12.17;9.60;;;19.20;99.90;;;;;;5037106;28;20439;-88
2022/05/12 23:09:09;;;;;;;12.33;8.87;;;19.20;99.90;;;;;;5030924;28;20455;-88
2022/05/12 23:11:36;;;;;;;11.50;10.07;;;19.20;99.90;;;;;;5029714;28;20446;-88
2022/05/12 23:14:03;;;;;;;11.03;9.27;;;19.30;99.90;;;;;;5028341;28;20470;-88
2022/05/12 23:16:33;;;;;;;11.73;9.00;;;19.30;99.90;;;;;;5028055;28;20508;-87
2022/05/12 23:21:54;;;;;;;12.00;9.23;;;19.40;99.90;;;;;;5022550;28;20445;-87
2022/05/12 23:24:22;;;;;;;11.53;9.17;;;19.30;99.90;;;;;;5021603;28;20564;-88
2022/05/12 23:26:49;;;;;;;10.60;9.33;;;19.40;99.90;;;;;;5017959;28;20478;-89
2022/05/12 23:29:17;;;;;;;11.50;8.67;;;19.30;99.90;;;;;;5026991;28;20473;-88
2022/05/12 23:31:46;;;;;;;10.53;8.80;;;19.30;99.90;;;;;;5037300;28;20433;-87
2022/05/12 23:34:13;;;;;;;10.30;9.20;;;19.30;99.90;;;;;;5040574;28;20459;-87
2022/05/12 23:36:41;;;;;;;11.10;9.03;;;19.30;99.90;;;;;;5029895;28;20446;-88
2022/05/12 23:39:09;;;;;;;13.90;9.20;;;19.30;99.90;;;;;;5020443;28;20454;-88
2022/05/12 23:41:37;;;;;;;10.67;9.20;;;19.30;99.90;;;;;;5018303;28;20439;-88
2022/05/12 23:44:06;;;;;;;11.80;9.10;;;19.30;99.90;;;;;;5019452;28;20504;-89
2022/05/12 23:46:33;;;;;;;10.93;9.13;;;19.40;99.90;;;;;;5018973;28;20462;-88
2022/05/12 23:49:02;;;;;;;11.03;9.10;;;19.30;99.90;;;;;;5021385;28;20466;-88
2022/05/12 23:51:29;;;;;;;10.87;9.50;;;19.30;99.90;;;;;;5033787;28;20447;-89
2022/05/12 23:53:57;;;;;;;10.30;8.80;;;19.30;99.90;;;;;;5025746;28;20541;-86
2022/05/12 23:56:24;;;;;;;11.00;9.20;;;19.30;99.90;;;;;;5020229;28;20478;-87
2022/05/12 23:58:52;;;;;;;12.07;10.00;;;19.30;99.90;;;;;;5026483;28;20450;-87
